HAO weather

Hospital Angeles de Las Lomas Heliport
Huixquilucan, Mexico, Mexico

Public forecast

Using degrees Celsius for public forecast. Weather courtesy of forecast.io.

METAR (pilot weather report)

Closest report is Licenciado Benito Juarez International Airport, 12.2 nm (22.5 km) ENE. Retrieved 2019/08/24 10:43 UTC (10 minutes ago):

MMMX 241043Z 00000KT 10SM SCT020 BKN100 BKN200 15/10 A3034 NOSIG RMK 8/532 HZY

TAF (pilot weather forecast)

Closest forecast is Licenciado Benito Juarez International Airport, 12.2 nm (22.5 km) ENE. Retrieved 2019/08/24 06:07 UTC (5 hours ago):

TAF COR MMMX 240500Z 2406/2512 23005KT P6SM SCT020 BKN080 OVC200 TX24/2421Z TEMPO 2406/2410 6SM -RA TN15/2412Z FM241200 00000KT 5SM HZ FU SCT025 BKN090 BKN200 FM241800 03010KT P6SM BKN025 BKN080 OVC220 BECMG 2421/2423 5SM -RA BKN025 OVC080 PROB40 2423/2503 4SM TSRA BKN025CB FM250800 01005KT P6SM SCT025 BKN100 BKN220